createdAt,value
2019-01-08T17:58:39.396Z,3.20
2019-01-08T18:01:11.226Z,3.30
2019-01-08T18:03:42.780Z,3.30
2019-01-08T18:06:10.150Z,3.30
2019-01-08T18:08:38.761Z,3.30
2019-01-08T18:11:07.343Z,3.30
2019-01-08T18:13:35.940Z,3.30
2019-01-08T18:16:04.529Z,3.30
2019-01-08T18:18:33.132Z,3.30
2019-01-08T18:21:01.715Z,3.30
2019-01-08T18:23:30.330Z,3.40
2019-01-08T18:25:58.957Z,3.40
2019-01-08T18:28:27.547Z,3.50
2019-01-08T18:30:56.135Z,3.50
2019-01-08T18:33:35.923Z,3.40
2019-01-08T18:36:04.519Z,3.40
2019-01-08T18:38:33.115Z,3.40
2019-01-08T18:41:01.722Z,3.50
2019-01-08T18:43:30.316Z,3.40
2019-01-08T18:45:58.968Z,3.40
2019-01-08T18:48:27.679Z,3.40
2019-01-08T18:50:56.262Z,3.40
2019-01-08T18:53:30.914Z,3.40
2019-01-08T18:55:59.557Z,3.40
2019-01-08T18:58:28.160Z,3.40
2019-01-08T19:00:56.796Z,3.40
2019-01-08T19:03:25.470Z,3.40
2019-01-08T19:05:54.239Z,3.40
2019-01-08T19:08:24.371Z,3.40
2019-01-08T19:10:52.975Z,3.40
2019-01-08T19:13:23.035Z,3.40
2019-01-08T19:15:53.377Z,3.40
2019-01-08T19:18:22.035Z,3.40
2019-01-08T19:20:50.645Z,3.40
2019-01-08T19:23:19.223Z,3.40
2019-01-08T19:25:47.815Z,3.40
2019-01-08T19:28:16.399Z,3.40
2019-01-08T19:30:45.003Z,3.40
2019-01-08T19:33:13.595Z,3.40
2019-01-08T19:35:42.195Z,3.40
2019-01-08T19:38:10.782Z,3.40
2019-01-08T19:40:39.382Z,3.40
2019-01-08T19:43:07.972Z,3.50
2019-01-08T19:45:36.567Z,3.50
2019-01-08T19:48:05.146Z,3.50
2019-01-08T19:50:33.744Z,3.50
2019-01-08T19:53:04.275Z,3.50
2019-01-08T19:55:32.883Z,3.50
2019-01-08T19:58:01.492Z,3.40
2019-01-08T20:00:30.122Z,3.40
2019-01-08T20:03:06.496Z,3.40
2019-01-08T20:05:35.095Z,3.40
2019-01-08T20:08:03.682Z,3.40
2019-01-08T20:10:32.283Z,3.30
2019-01-08T20:13:03.918Z,3.30
2019-01-08T20:15:32.499Z,3.30
2019-01-08T20:18:01.096Z,3.30
2019-01-08T20:20:29.681Z,3.30
2019-01-08T20:22:58.280Z,3.30
2019-01-08T20:25:26.868Z,3.30
2019-01-08T20:27:55.467Z,3.30
2019-01-08T20:30:24.054Z,3.30
2019-01-08T20:32:52.656Z,3.30
2019-01-08T20:35:21.241Z,3.20
2019-01-08T20:37:49.835Z,3.20
2019-01-08T20:40:18.424Z,3.20
2019-01-08T20:42:47.015Z,3.20
2019-01-08T20:45:15.599Z,3.20
2019-01-08T20:47:44.199Z,3.20
2019-01-08T20:50:12.782Z,3.20
2019-01-08T20:52:41.375Z,3.20
2019-01-08T20:55:09.972Z,3.20
2019-01-08T20:57:38.575Z,3.20
2019-01-08T21:00:09.363Z,3.20
2019-01-08T21:02:37.956Z,3.20
2019-01-08T21:05:06.535Z,3.20
2019-01-08T21:07:35.135Z,3.20
2019-01-08T21:10:04.096Z,3.20
2019-01-08T21:12:32.691Z,3.10
2019-01-08T21:15:01.280Z,3.10
2019-01-08T21:17:29.976Z,3.10
2019-01-08T21:19:58.556Z,3.00
2019-01-08T21:22:27.138Z,3.00
2019-01-08T21:24:55.800Z,3.00
2019-01-08T21:27:24.379Z,3.00
2019-01-08T21:29:53.055Z,3.00
2019-01-08T21:32:21.638Z,3.00
2019-01-08T21:34:50.235Z,3.00
2019-01-08T21:37:18.827Z,3.00
2019-01-08T21:39:47.427Z,3.00
2019-01-08T21:42:16.162Z,3.00
2019-01-08T21:44:44.762Z,3.00
2019-01-08T21:47:13.418Z,3.00
2019-01-08T21:49:42.257Z,3.00
2019-01-08T21:52:11.247Z,3.00
2019-01-08T21:54:39.847Z,3.00
2019-01-08T21:57:08.431Z,3.00
2019-01-08T21:59:37.026Z,3.00
2019-01-08T22:02:05.678Z,3.00
2019-01-08T22:04:34.447Z,2.90
2019-01-08T22:07:03.031Z,2.90
2019-01-08T22:09:31.694Z,3.00
2019-01-08T22:12:00.349Z,3.00
2019-01-08T22:14:28.938Z,3.00
2019-01-08T22:16:57.527Z,3.00
2019-01-08T22:19:26.123Z,3.00
2019-01-08T22:21:54.706Z,3.00
2019-01-08T22:24:23.299Z,3.00
2019-01-08T22:26:51.879Z,3.00
2019-01-08T22:29:20.482Z,3.00
2019-01-08T22:31:49.435Z,3.00
2019-01-08T22:34:29.958Z,3.10
2019-01-08T22:36:58.543Z,3.00
2019-01-08T22:39:27.126Z,3.10
2019-01-08T22:41:55.724Z,3.00
2019-01-08T22:44:24.306Z,3.00
2019-01-08T22:46:52.970Z,3.00
2019-01-08T22:49:21.563Z,2.90
2019-01-08T22:51:50.156Z,2.90
2019-01-08T22:54:18.754Z,2.90
2019-01-08T22:56:47.346Z,3.00
2019-01-08T22:59:15.936Z,3.00
2019-01-08T23:01:46.171Z,3.00
2019-01-08T23:04:14.894Z,3.00
2019-01-08T23:06:43.490Z,2.90
2019-01-08T23:09:12.144Z,2.90
2019-01-08T23:11:40.816Z,2.90
2019-01-08T23:14:09.396Z,3.00
2019-01-08T23:16:37.989Z,2.90
2019-01-08T23:19:06.573Z,2.90
2019-01-08T23:21:35.242Z,2.80
2019-01-08T23:24:03.896Z,2.90
2019-01-08T23:26:32.491Z,2.70
2019-01-08T23:29:01.079Z,2.80
2019-01-08T23:31:29.679Z,2.80
2019-01-08T23:33:58.259Z,2.80
2019-01-08T23:36:26.862Z,2.80
2019-01-08T23:38:55.529Z,2.80
2019-01-08T23:41:24.123Z,2.80
2019-01-08T23:43:52.756Z,2.80
2019-01-08T23:46:21.343Z,2.80
2019-01-08T23:48:49.936Z,2.80
2019-01-08T23:51:18.562Z,2.80
2019-01-08T23:53:48.318Z,2.70
2019-01-08T23:56:16.903Z,2.70
2019-01-08T23:58:45.590Z,2.70
